Terminal Aerodrome Forecast
Issued by NWS

Current Version | Previous Version | Text Only | Print | Product List | Glossary On
Versions: 1 2 3 4 5 6 7 8 9 10 11 12 13 14
917
FTUS42 TJSJ 252320
TAFJBQ
TAF
TJBQ 252320Z 2600/2624 09012KT P6SM FEW030 SCT060
     FM261400 08016KT P6SM VCTS SCT025CB BKN040
     FM262330 10010KT P6SM VCSH SCT030 SCT060
      AMD NOT SKED 2602/2611=

USA.gov is the U.S. government's official web portal to all federal, state and local government web resources and services.